Time;durP1;ratioP1;P1;durP2;ratioP2;P2;SDS_P1;SDS_P2;PMS_P1;PMS_P2;Temp;Humidity;BMP_temperature;BMP_pressure;BME280_temperature;BME280_humidity;BME280_pressure;Samples;Min_cycle;Max_cycle;Signal;HPM_P1;HPM_P2
2024/01/11 00:01:45;;;;;;;;;;;;;;;16.71;13.37;99250.91;5056199;28;19920;-87
2024/01/11 00:04:11;;;;;;;;;;;;;;;16.34;13.58;99258.59;5045210;28;20395;-86
2024/01/11 00:06:41;;;;;;;;;;;;;;;15.81;14.07;99257.06;5053231;28;19968;-87
2024/01/11 00:09:07;;;;;;;;;;;;;;;15.90;14.02;99251.38;5052228;28;20004;-87
2024/01/11 00:11:33;;;;;;;;;;;;;;;16.00;14.02;99247.31;5047305;28;19917;-87
2024/01/11 00:13:59;;;;;;;;;;;;;;;16.02;13.86;99236.69;5046064;28;19958;-87
2024/01/11 00:16:26;;;;;;;;;;;;;;;16.31;14.04;99236.34;5045207;28;20000;-86
2024/01/11 00:18:52;;;;;;;;;;;;;;;16.63;14.12;99224.16;5055814;28;19983;-87
2024/01/11 00:21:18;;;;;;;;;;;;;;;16.78;13.64;99240.00;5056238;28;20403;-87
2024/01/11 00:23:44;;;;;;;;;;;;;;;16.83;13.80;99230.59;5039820;28;19921;-86
2024/01/11 00:26:13;;;;;;;;;;;;;;;16.73;14.05;99231.97;5037691;28;20299;-86
2024/01/11 00:28:39;;;;;;;;;;;;;;;16.25;13.80;99230.25;5045075;28;19917;-87
2024/01/11 00:31:05;;;;;;;;;;;;;;;15.96;14.74;99233.38;5035566;28;19921;-87
2024/01/11 00:33:31;;;;;;;;;;;;;;;15.49;15.11;99222.09;5041365;28;20380;-87
2024/01/11 00:35:57;;;;;;;;;;;;;;;15.67;15.38;99223.41;5056985;28;19965;-87
2024/01/11 00:38:23;;;;;;;;;;;;;;;16.17;14.45;99219.31;5056436;28;20007;-87
2024/01/11 00:40:49;;;;;;;;;;;;;;;16.40;14.14;99214.81;5054744;28;19971;-87
2024/01/11 00:43:16;;;;;;;;;;;;;;;16.02;14.15;99214.53;5053796;28;19928;-87
2024/01/11 00:45:42;;;;;;;;;;;;;;;15.33;14.73;99214.81;5052718;28;19928;-87
2024/01/11 00:48:08;;;;;;;;;;;;;;;15.34;14.79;99208.09;5049048;28;19925;-87
2024/01/11 00:50:34;;;;;;;;;;;;;;;15.83;14.21;99206.88;5061145;28;19985;-86
2024/01/11 00:53:01;;;;;;;;;;;;;;;15.69;13.51;99211.97;5074909;28;19923;-87
2024/01/11 00:55:27;;;;;;;;;;;;;;;15.38;13.96;99218.13;5073875;28;19980;-86
2024/01/11 00:57:53;;;;;;;;;;;;;;;15.59;14.12;99216.03;5064351;28;20360;-87
2024/01/11 01:00:19;;;;;;;;;;;;;;;15.77;14.11;99211.06;5050660;28;19917;-87
2024/01/11 01:02:45;;;;;;;;;;;;;;;16.05;14.35;99205.53;5042753;28;19929;-87
2024/01/11 01:05:11;;;;;;;;;;;;;;;16.47;13.77;99207.50;5048577;28;20289;-87
2024/01/11 01:07:37;;;;;;;;;;;;;;;16.49;13.58;99198.81;5045768;28;19921;-87
2024/01/11 01:10:03;;;;;;;;;;;;;;;16.45;13.94;99195.16;5048107;28;20070;-86
2024/01/11 01:12:29;;;;;;;;;;;;;;;16.66;13.52;99198.50;5045609;28;20370;-86
2024/01/11 01:14:55;;;;;;;;;;;;;;;15.73;13.96;99196.28;5046380;28;20377;-87
2024/01/11 01:17:21;;;;;;;;;;;;;;;15.68;14.13;99196.53;5045104;28;19925;-86
2024/01/11 01:19:47;;;;;;;;;;;;;;;15.77;14.37;99188.91;5042404;28;20376;-86
2024/01/11 01:22:13;;;;;;;;;;;;;;;15.79;14.40;99194.88;5047166;28;19920;-87
2024/01/11 01:24:39;;;;;;;;;;;;;;;15.37;14.29;99201.88;5044753;28;19921;-87
2024/01/11 01:27:05;;;;;;;;;;;;;;;15.58;14.84;99203.38;5044044;28;19924;-87
2024/01/11 01:29:31;;;;;;;;;;;;;;;15.65;14.48;99197.25;5045097;28;20012;-86
2024/01/11 01:31:57;;;;;;;;;;;;;;;15.74;14.59;99195.94;5046907;28;19921;-87
2024/01/11 01:34:23;;;;;;;;;;;;;;;16.13;14.29;99191.50;5043205;28;19927;-87
2024/01/11 01:36:49;;;;;;;;;;;;;;;16.46;13.51;99189.25;5047628;28;19921;-87
2024/01/11 01:39:15;;;;;;;;;;;;;;;16.74;13.63;99180.06;5043961;28;20344;-87
2024/01/11 01:41:41;;;;;;;;;;;;;;;16.64;13.62;99177.84;5043123;28;19932;-86
2024/01/11 01:44:07;;;;;;;;;;;;;;;16.47;13.44;99179.78;5043004;28;19921;-87
2024/01/11 01:46:34;;;;;;;;;;;;;;;16.21;13.86;99189.75;5047216;28;19990;-87
2024/01/11 01:49:00;;;;;;;;;;;;;;;16.46;14.16;99185.66;5043504;28;19951;-87
2024/01/11 01:51:28;;;;;;;;;;;;;;;16.67;13.64;99186.25;5044184;28;20342;-87
2024/01/11 01:53:56;;;;;;;;;;;;;;;16.88;13.76;99188.75;5045208;28;19986;-87
2024/01/11 01:56:22;;;;;;;;;;;;;;;17.07;13.17;99181.31;5044546;28;19956;-87
2024/01/11 01:58:53;;;;;;;;;;;;;;;17.12;13.06;99189.34;5048244;28;19944;-87
2024/01/11 02:01:20;;;;;;;;;;;;;;;17.02;12.76;99183.53;5048195;28;19974;-86
2024/01/11 02:03:49;;;;;;;;;;;;;;;16.90;12.88;99178.09;5051716;28;19943;-86
2024/01/11 02:06:15;;;;;;;;;;;;;;;16.64;13.22;99173.09;5046855;28;19940;-87
2024/01/11 02:08:45;;;;;;;;;;;;;;;16.51;13.83;99177.13;5062983;28;20351;-86
2024/01/11 02:11:11;;;;;;;;;;;;;;;16.48;13.53;99178.59;5047455;28;19928;-87
2024/01/11 02:13:37;;;;;;;;;;;;;;;16.53;13.35;99177.56;5053407;28;19931;-87
2024/01/11 02:16:03;;;;;;;;;;;;;;;16.42;13.46;99180.03;5058743;28;19921;-86
2024/01/11 02:18:29;;;;;;;;;;;;;;;16.19;13.77;99172.66;5050106;28;19921;-87
2024/01/11 02:20:56;;;;;;;;;;;;;;;16.27;13.85;99174.44;5053201;28;19999;-87
2024/01/11 02:23:24;;;;;;;;;;;;;;;16.32;14.06;99179.75;5053491;28;20019;-87
2024/01/11 02:25:50;;;;;;;;;;;;;;;16.24;13.41;99164.09;5056332;28;19967;-86
2024/01/11 02:28:16;;;;;;;;;;;;;;;16.24;13.69;99162.13;5057132;28;19921;-86
2024/01/11 02:30:42;;;;;;;;;;;;;;;16.52;13.70;99159.34;5055411;28;19925;-86
2024/01/11 02:33:09;;;;;;;;;;;;;;;16.56;13.24;99165.78;5052803;28;20023;-86
2024/01/11 02:35:37;;;;;;;;;;;;;;;16.52;13.10;99167.66;5057619;28;20365;-86
2024/01/11 02:38:03;;;;;;;;;;;;;;;16.57;13.53;99159.03;5057575;28;19916;-86
2024/01/11 02:40:29;;;;;;;;;;;;;;;16.75;13.20;99149.22;5047436;28;19924;-87
2024/01/11 02:42:55;;;;;;;;;;;;;;;16.20;13.16;99152.91;5056108;28;19920;-87
2024/01/11 02:45:21;;;;;;;;;;;;;;;15.95;13.66;99143.13;5056329;28;19928;-87
2024/01/11 02:47:47;;;;;;;;;;;;;;;15.98;13.61;99130.53;5055463;28;19921;-86
2024/01/11 02:50:13;;;;;;;;;;;;;;;16.30;13.53;99130.22;5056575;28;19913;-87
2024/01/11 02:52:39;;;;;;;;;;;;;;;15.73;13.56;99147.25;5048734;28;20301;-86
2024/01/11 02:55:05;;;;;;;;;;;;;;;15.35;13.67;99143.31;5038900;28;19950;-86
2024/01/11 02:57:31;;;;;;;;;;;;;;;15.57;13.63;99151.13;5060954;28;19927;-87
2024/01/11 02:59:57;;;;;;;;;;;;;;;15.40;14.00;99143.91;5048382;28;20304;-87
2024/01/11 03:02:23;;;;;;;;;;;;;;;15.77;13.27;99144.59;5057566;28;19921;-87
2024/01/11 03:04:49;;;;;;;;;;;;;;;16.11;12.84;99145.91;5045512;28;19921;-86
2024/01/11 03:07:15;;;;;;;;;;;;;;;15.77;13.05;99153.72;5051670;28;19952;-87
2024/01/11 03:09:41;;;;;;;;;;;;;;;15.81;12.76;99146.31;5045617;28;19948;-86
2024/01/11 03:12:07;;;;;;;;;;;;;;;15.93;12.59;99159.28;5053850;28;19929;-86
2024/01/11 03:14:33;;;;;;;;;;;;;;;16.03;12.99;99161.56;5054992;28;20003;-86
2024/01/11 03:16:59;;;;;;;;;;;;;;;16.18;12.71;99159.97;5056234;28;19983;-86
2024/01/11 03:19:25;;;;;;;;;;;;;;;16.18;12.58;99168.28;5057142;28;19962;-86
2024/01/11 03:21:51;;;;;;;;;;;;;;;15.95;13.34;99161.69;5052502;28;20016;-86
2024/01/11 03:24:17;;;;;;;;;;;;;;;16.15;12.88;99155.16;5052634;28;19916;-87
2024/01/11 03:26:43;;;;;;;;;;;;;;;16.28;12.75;99143.63;5054507;28;19936;-87
2024/01/11 03:29:09;;;;;;;;;;;;;;;16.32;12.91;99138.19;5053212;28;19971;-86
2024/01/11 03:31:35;;;;;;;;;;;;;;;16.50;13.03;99145.78;5053029;28;19917;-86
2024/01/11 03:34:01;;;;;;;;;;;;;;;15.73;12.78;99143.69;5055336;28;19925;-86
2024/01/11 03:36:27;;;;;;;;;;;;;;;15.56;13.53;99130.97;5051214;28;19935;-86
2024/01/11 03:38:53;;;;;;;;;;;;;;;15.92;13.20;99124.44;5055002;28;20372;-86
2024/01/11 03:41:19;;;;;;;;;;;;;;;16.28;12.68;99120.66;5055146;28;19916;-87
2024/01/11 03:43:45;;;;;;;;;;;;;;;14.96;13.69;99118.03;5035310;28;19925;-86
2024/01/11 03:46:11;;;;;;;;;;;;;;;14.89;13.62;99111.50;5052275;28;20411;-86
2024/01/11 03:48:37;;;;;;;;;;;;;;;15.37;13.95;99116.94;5054896;28;19928;-86
2024/01/11 03:51:03;;;;;;;;;;;;;;;15.90;13.09;99110.16;5055706;28;20343;-86
2024/01/11 03:53:29;;;;;;;;;;;;;;;16.16;12.84;99104.91;5054707;28;19946;-86
2024/01/11 03:55:55;;;;;;;;;;;;;;;16.30;12.60;99107.25;5052061;28;19928;-86
2024/01/11 03:58:22;;;;;;;;;;;;;;;16.30;12.15;99108.06;5051865;28;19920;-86
2024/01/11 04:00:48;;;;;;;;;;;;;;;15.68;11.79;99107.97;5054363;28;20285;-86
2024/01/11 04:03:16;;;;;;;;;;;;;;;14.67;12.70;99106.44;5053442;28;20145;-86
2024/01/11 04:05:42;;;;;;;;;;;;;;;15.00;13.08;99110.69;5055249;28;19920;-86
2024/01/11 04:08:08;;;;;;;;;;;;;;;15.40;12.65;99120.94;5048538;28;19920;-86
2024/01/11 04:10:34;;;;;;;;;;;;;;;15.02;12.69;99124.97;5052174;28;20262;-86
2024/01/11 04:13:00;;;;;;;;;;;;;;;14.88;12.99;99119.00;5041974;28;19972;-86
2024/01/11 04:15:26;;;;;;;;;;;;;;;14.91;13.35;99114.72;5052854;28;20407;-87
2024/01/11 04:17:52;;;;;;;;;;;;;;;15.29;13.03;99109.56;5074291;28;19920;-86
2024/01/11 04:20:18;;;;;;;;;;;;;;;15.22;12.96;99106.56;5061208;28;19944;-87
2024/01/11 04:22:44;;;;;;;;;;;;;;;15.58;13.18;99109.28;5056272;28;19927;-86
2024/01/11 04:25:11;;;;;;;;;;;;;;;15.13;13.10;99114.22;5051994;28;19927;-87
2024/01/11 04:27:37;;;;;;;;;;;;;;;15.22;12.94;99103.81;5047659;28;19927;-86
2024/01/11 04:30:03;;;;;;;;;;;;;;;15.26;13.11;99101.97;5051254;28;19929;-86
2024/01/11 04:32:29;;;;;;;;;;;;;;;15.29;13.05;99103.22;5050200;28;19921;-86
2024/01/11 04:34:55;;;;;;;;;;;;;;;15.33;13.09;99110.50;5051564;28;19966;-86
2024/01/11 04:37:21;;;;;;;;;;;;;;;15.27;12.98;99111.06;5053253;28;19921;-86
2024/01/11 04:39:47;;;;;;;;;;;;;;;15.14;13.43;99099.25;5054189;28;20377;-86
2024/01/11 04:42:14;;;;;;;;;;;;;;;15.37;13.49;99100.31;5044902;28;19921;-86
2024/01/11 04:44:40;;;;;;;;;;;;;;;14.81;13.38;99098.59;5050431;28;20288;-86
2024/01/11 04:47:06;;;;;;;;;;;;;;;14.37;14.02;99092.88;5050139;28;19931;-86
2024/01/11 04:49:31;;;;;;;;;;;;;;;14.58;13.97;99084.47;5044675;28;19929;-86
2024/01/11 04:51:58;;;;;;;;;;;;;;;14.86;14.10;99081.78;5055028;28;20669;-86
2024/01/11 04:54:24;;;;;;;;;;;;;;;15.17;13.83;99073.63;5049815;28;20052;-86
2024/01/11 04:56:50;;;;;;;;;;;;;;;15.68;13.36;99070.00;5027210;28;19925;-86
2024/01/11 04:59:16;;;;;;;;;;;;;;;15.79;13.76;99068.34;5047702;28;19923;-86
2024/01/11 05:01:42;;;;;;;;;;;;;;;15.94;13.66;99063.19;5048182;28;19944;-86
2024/01/11 05:04:08;;;;;;;;;;;;;;;16.12;14.42;99067.22;5047342;28;19921;-86
2024/01/11 05:06:34;;;;;;;;;;;;;;;15.33;14.11;99063.44;5059048;28;19940;-86
2024/01/11 05:09:00;;;;;;;;;;;;;;;15.04;14.11;99078.41;5060402;28;20372;-86
2024/01/11 05:11:26;;;;;;;;;;;;;;;15.07;14.44;99087.97;5050645;28;19940;-86
2024/01/11 05:13:52;;;;;;;;;;;;;;;15.18;14.86;99075.25;5053600;28;19943;-86
2024/01/11 05:16:26;;;;;;;;;;;;;;;15.65;14.52;99069.91;5054731;28;19925;-85
2024/01/11 05:18:52;;;;;;;;;;;;;;;15.80;13.40;99072.69;5049569;28;19929;-86
2024/01/11 05:21:19;;;;;;;;;;;;;;;15.44;13.94;99067.34;5042858;28;20383;-86
2024/01/11 05:23:45;;;;;;;;;;;;;;;15.01;13.96;99059.72;5042755;28;19921;-84
2024/01/11 05:26:11;;;;;;;;;;;;;;;14.36;14.97;99055.34;5041674;28;19927;-86
2024/01/11 05:28:38;;;;;;;;;;;;;;;14.75;14.87;99044.72;5048282;28;20351;-85
2024/01/11 05:31:09;;;;;;;;;;;;;;;15.15;14.75;99034.44;5041580;28;19921;-85
2024/01/11 05:33:35;;;;;;;;;;;;;;;15.66;13.72;99032.78;5038910;28;19928;-85
2024/01/11 05:36:01;;;;;;;;;;;;;;;15.52;13.25;99021.31;5043484;28;19936;-87
2024/01/11 05:38:26;;;;;;;;;;;;;;;15.67;14.03;99010.25;5049986;28;20363;-86
2024/01/11 05:40:52;;;;;;;;;;;;;;;15.96;13.49;99002.69;5044916;28;19966;-85
2024/01/11 05:43:18;;;;;;;;;;;;;;;16.06;13.70;99002.94;5045580;28;19920;-88
2024/01/11 05:45:44;;;;;;;;;;;;;;;15.82;14.13;99008.69;5042977;28;19978;-84
2024/01/11 05:48:11;;;;;;;;;;;;;;;15.73;14.43;99005.25;5041498;28;19928;-85
2024/01/11 05:50:39;;;;;;;;;;;;;;;15.35;14.12;99010.53;5039547;28;19917;-82
2024/01/11 05:53:05;;;;;;;;;;;;;;;15.40;14.71;99013.84;5044284;28;19943;-82
2024/01/11 05:55:31;;;;;;;;;;;;;;;15.76;14.38;99007.31;5045372;28;20439;-81
2024/01/11 05:57:57;;;;;;;;;;;;;;;16.15;14.19;98998.03;5043907;28;19939;-82
2024/01/11 06:00:23;;;;;;;;;;;;;;;16.16;13.99;98996.06;5039715;28;19929;-82
2024/01/11 06:02:49;;;;;;;;;;;;;;;15.73;13.81;99000.53;5043687;28;20369;-84
2024/01/11 06:05:15;;;;;;;;;;;;;;;15.53;13.91;99011.84;5042551;28;19975;-82
2024/01/11 06:07:41;;;;;;;;;;;;;;;15.59;14.62;99025.06;5042940;28;19928;-84
2024/01/11 06:10:08;;;;;;;;;;;;;;;15.59;14.65;99029.81;5037657;28;20308;-82
2024/01/11 06:12:35;;;;;;;;;;;;;;;15.71;14.73;99011.16;5034160;28;20315;-83
2024/01/11 06:15:01;;;;;;;;;;;;;;;16.05;14.14;98997.78;5047158;28;19924;-83
2024/01/11 06:17:27;;;;;;;;;;;;;;;16.20;13.64;99003.31;5048116;28;20365;-83
2024/01/11 06:19:54;;;;;;;;;;;;;;;16.09;14.16;98996.69;5052137;28;20289;-83
2024/01/11 06:22:20;;;;;;;;;;;;;;;15.87;14.16;99011.97;5051118;28;19921;-84
2024/01/11 06:24:46;;;;;;;;;;;;;;;15.69;13.95;99004.38;5035048;28;19924;-84
2024/01/11 06:27:12;;;;;;;;;;;;;;;15.99;14.42;99010.28;5047856;28;19925;-84
2024/01/11 06:29:38;;;;;;;;;;;;;;;16.19;14.20;99011.97;5053676;28;20261;-83
2024/01/11 06:32:05;;;;;;;;;;;;;;;16.38;13.81;99031.47;5053201;28;19917;-84
2024/01/11 06:34:31;;;;;;;;;;;;;;;15.66;14.60;99030.78;5051766;28;20011;-84
2024/01/11 06:36:57;;;;;;;;;;;;;;;15.80;15.01;99035.91;5052921;28;20284;-84
2024/01/11 06:39:23;;;;;;;;;;;;;;;16.14;14.68;99017.78;5053059;28;19917;-84
2024/01/11 06:41:49;;;;;;;;;;;;;;;16.64;14.01;99006.72;5036613;28;19917;-84
2024/01/11 06:44:15;;;;;;;;;;;;;;;16.37;13.55;99010.44;5047741;28;20281;-84
2024/01/11 06:46:41;;;;;;;;;;;;;;;16.19;14.15;99010.03;5055229;28;19928;-84
2024/01/11 06:49:07;;;;;;;;;;;;;;;16.44;14.11;99014.19;5055450;28;19927;-84
2024/01/11 06:51:33;;;;;;;;;;;;;;;16.64;13.57;99006.72;5056276;28;19989;-83
2024/01/11 06:54:01;;;;;;;;;;;;;;;16.67;14.01;98983.84;5042907;28;20463;-84
2024/01/11 06:56:27;;;;;;;;;;;;;;;16.96;12.90;98990.81;5050672;28;19921;-84
2024/01/11 06:58:54;;;;;;;;;;;;;;;16.22;13.54;98991.88;5055618;28;19927;-84
2024/01/11 07:01:20;;;;;;;;;;;;;;;16.44;13.85;98983.69;5056510;28;19916;-84
2024/01/11 07:03:46;;;;;;;;;;;;;;;16.64;13.57;98979.00;5055933;28;20040;-84
2024/01/11 07:06:12;;;;;;;;;;;;;;;16.78;13.75;98968.22;5055986;28;19921;-84
2024/01/11 07:08:38;;;;;;;;;;;;;;;17.04;14.01;98948.16;5056299;28;20016;-84
2024/01/11 07:11:04;;;;;;;;;;;;;;;17.30;13.79;98937.19;5056003;28;19963;-84
2024/01/11 07:13:31;;;;;;;;;;;;;;;17.27;13.82;98930.41;5056049;28;19921;-84
2024/01/11 07:15:57;;;;;;;;;;;;;;;16.61;14.15;98949.25;5055293;28;20377;-84
2024/01/11 07:18:24;;;;;;;;;;;;;;;15.81;15.00;98943.38;5047178;28;19960;-84
2024/01/11 07:20:50;;;;;;;;;;;;;;;16.27;15.07;98927.84;5055690;28;20007;-84
2024/01/11 07:23:16;;;;;;;;;;;;;;;17.07;14.18;98916.91;5055746;28;19959;-84
2024/01/11 07:25:42;;;;;;;;;;;;;;;17.65;13.48;98923.19;5055838;28;19921;-84
2024/01/11 07:28:08;;;;;;;;;;;;;;;17.90;12.73;98916.88;5055915;28;19921;-84
2024/01/11 07:30:34;;;;;;;;;;;;;;;18.05;13.10;98917.09;5036224;28;19921;-84
2024/01/11 07:33:01;;;;;;;;;;;;;;;18.23;13.21;98913.41;5035970;28;19920;-84
2024/01/11 07:35:27;;;;;;;;;;;;;;;17.83;12.56;98907.59;5037497;28;19917;-84
2024/01/11 07:37:53;;;;;;;;;;;;;;;16.50;13.79;98912.94;5055884;28;19912;-84
2024/01/11 07:40:18;;;;;;;;;;;;;;;15.97;14.47;98915.66;5045941;28;20392;-84
2024/01/11 07:42:45;;;;;;;;;;;;;;;13.35;17.00;98926.50;5058715;28;19921;-84
2024/01/11 07:45:11;;;;;;;;;;;;;;;14.38;16.95;98925.16;5065528;28;20022;-84
2024/01/11 07:47:38;;;;;;;;;;;;;;;15.25;16.88;98923.31;5063856;28;19916;-85
2024/01/11 07:50:06;;;;;;;;;;;;;;;15.87;16.26;98917.00;5036344;28;19988;-85
2024/01/11 07:52:32;;;;;;;;;;;;;;;16.27;16.31;98922.31;5034993;28;19925;-84
2024/01/11 07:55:06;;;;;;;;;;;;;;;16.80;16.21;98924.31;5035631;28;19921;-84
2024/01/11 07:57:32;;;;;;;;;;;;;;;17.33;15.64;98930.09;5044468;28;19927;-84
2024/01/11 07:59:59;;;;;;;;;;;;;;;17.25;15.40;98937.47;5055663;28;20349;-85
2024/01/11 08:02:25;;;;;;;;;;;;;;;17.81;15.29;98933.00;5055043;28;19963;-85
2024/01/11 08:04:51;;;;;;;;;;;;;;;18.32;15.40;98929.84;5043964;28;19925;-85
2024/01/11 08:07:17;;;;;;;;;;;;;;;18.55;15.63;98927.81;5055535;28;19921;-85
2024/01/11 08:09:45;;;;;;;;;;;;;;;19.19;15.38;98929.38;5055230;28;19916;-85
2024/01/11 08:12:11;;;;;;;;;;;;;;;19.72;15.26;98921.63;5055410;28;19916;-85
2024/01/11 08:14:37;;;;;;;;;;;;;;;20.19;14.83;98904.06;5053319;28;19924;-85
2024/01/11 08:17:04;;;;;;;;;;;;;;;20.48;15.27;98897.50;5036671;28;19921;-85
2024/01/11 08:19:31;;;;;;;;;;;;;;;20.71;14.71;98900.81;5055070;28;19966;-85
2024/01/11 08:21:57;;;;;;;;;;;;;;;20.68;15.08;98909.97;5051411;28;19959;-85
2024/01/11 08:24:23;;;;;;;;;;;;;;;20.55;15.13;98908.72;5050534;28;20385;-85
2024/01/11 08:26:49;;;;;;;;;;;;;;;20.72;14.81;98891.28;5046401;28;20015;-85
2024/01/11 08:29:15;;;;;;;;;;;;;;;20.76;15.05;98897.66;5055182;28;20009;-85
2024/01/11 08:31:43;;;;;;;;;;;;;;;20.71;15.44;98898.03;5054850;28;19967;-85
2024/01/11 08:34:10;;;;;;;;;;;;;;;20.86;14.86;98902.50;5055296;28;19939;-85
2024/01/11 08:36:38;;;;;;;;;;;;;;;20.73;15.61;98897.63;5045098;28;20024;-85
2024/01/11 08:39:08;;;;;;;;;;;;;;;20.77;15.24;98901.25;5050597;28;19917;-85
2024/01/11 08:41:35;;;;;;;;;;;;;;;20.99;15.42;98886.16;5035038;28;19917;-85
2024/01/11 08:44:02;;;;;;;;;;;;;;;21.18;15.00;98883.06;5043936;28;19966;-86
2024/01/11 08:46:30;;;;;;;;;;;;;;;21.43;14.98;98883.13;5049530;28;20300;-85
2024/01/11 08:48:56;;;;;;;;;;;;;;;21.30;14.84;98896.69;5049367;28;20449;-85
2024/01/11 08:51:22;;;;;;;;;;;;;;;20.75;14.73;98890.47;5041502;28;20015;-85
2024/01/11 08:53:48;;;;;;;;;;;;;;;20.71;15.54;98897.22;5054166;28;19960;-86
2024/01/11 08:56:16;;;;;;;;;;;;;;;20.32;15.78;98895.03;5048546;28;19940;-87
2024/01/11 08:58:42;;;;;;;;;;;;;;;19.87;15.54;98892.69;5050385;28;19924;-86
2024/01/11 09:01:08;;;;;;;;;;;;;;;19.06;17.19;98903.00;5054110;28;19917;-86
2024/01/11 09:03:35;;;;;;;;;;;;;;;18.48;16.88;98911.03;5054150;28;19963;-86
2024/01/11 09:06:02;;;;;;;;;;;;;;;19.14;16.48;98902.69;5054502;28;19916;-86
2024/01/11 09:08:28;;;;;;;;;;;;;;;19.87;16.09;98898.25;5048477;28;19921;-86
2024/01/11 09:10:54;;;;;;;;;;;;;;;20.33;16.33;98899.41;5054176;28;19924;-86
2024/01/11 09:13:19;;;;;;;;;;;;;;;19.87;16.68;98901.03;5049449;28;19928;-86
2024/01/11 09:15:45;;;;;;;;;;;;;;;20.44;15.65;98886.31;5053955;28;19928;-86
2024/01/11 09:18:12;;;;;;;;;;;;;;;20.36;15.69;98879.13;5053411;28;19928;-86
2024/01/11 09:20:38;;;;;;;;;;;;;;;20.59;16.56;98879.63;5053943;28;19947;-87
2024/01/11 09:23:04;;;;;;;;;;;;;;;20.96;16.36;98878.56;5053822;28;19924;-87
2024/01/11 09:25:30;;;;;;;;;;;;;;;21.42;15.42;98881.53;5053610;28;19916;-87
2024/01/11 09:27:56;;;;;;;;;;;;;;;20.40;15.65;98887.50;5053494;28;19921;-87
2024/01/11 09:30:22;;;;;;;;;;;;;;;19.36;17.01;98902.97;5045965;28;19977;-87
2024/01/11 09:32:48;;;;;;;;;;;;;;;18.81;17.02;98901.94;5053886;28;20273;-87
2024/01/11 09:35:14;;;;;;;;;;;;;;;19.49;16.90;98902.28;5053772;28;20054;-88
2024/01/11 09:37:40;;;;;;;;;;;;;;;19.28;16.83;98907.63;5053733;28;19924;-87
2024/01/11 09:40:10;;;;;;;;;;;;;;;19.66;16.43;98896.09;5049602;28;19921;-88
2024/01/11 09:42:37;;;;;;;;;;;;;;;20.07;17.10;98894.03;5053547;28;19931;-88
2024/01/11 09:45:12;;;;;;;;;;;;;;;19.99;16.36;98881.22;5053380;28;19943;-88
2024/01/11 09:47:39;;;;;;;;;;;;;;;20.62;16.09;98878.06;5044608;28;19923;-88
2024/01/11 09:50:08;;;;;;;;;;;;;;;21.51;16.62;98867.97;5033906;28;19963;-89
2024/01/11 09:52:36;;;;;;;;;;;;;;;21.90;15.70;98864.00;5052660;28;19947;-88
2024/01/11 09:55:02;;;;;;;;;;;;;;;21.52;15.48;98869.59;5053697;28;19921;-89
2024/01/11 09:57:29;;;;;;;;;;;;;;;20.96;16.71;98878.56;5053084;28;19923;-89
2024/01/11 09:59:56;;;;;;;;;;;;;;;19.48;16.83;98869.25;5053258;28;19939;-88
2024/01/11 10:02:28;;;;;;;;;;;;;;;19.91;17.15;98869.22;5065386;28;19921;-89
2024/01/11 10:04:54;;;;;;;;;;;;;;;20.96;16.01;98854.25;5052306;28;19951;-89
2024/01/11 10:07:21;;;;;;;;;;;;;;;20.24;16.73;98850.75;5053752;28;20262;-89
2024/01/11 10:09:48;;;;;;;;;;;;;;;20.25;16.78;98842.00;5053194;28;19924;-89
2024/01/11 10:12:14;;;;;;;;;;;;;;;20.57;16.71;98847.75;5052932;28;19943;-89
2024/01/11 10:14:40;;;;;;;;;;;;;;;18.52;17.55;98845.13;5039039;28;20370;-89
2024/01/11 10:17:06;;;;;;;;;;;;;;;19.22;17.21;98837.59;5047490;28;19928;-89
2024/01/11 10:19:32;;;;;;;;;;;;;;;20.27;16.37;98838.81;5056747;28;19920;-89
2024/01/11 10:22:01;;;;;;;;;;;;;;;18.18;20.19;98840.69;5045812;28;20011;-89
2024/01/11 10:24:28;;;;;;;;;;;;;;;17.47;18.17;98831.22;5037433;28;19987;-89
2024/01/11 10:26:57;;;;;;;;;;;;;;;16.77;18.82;98833.53;5052569;28;20456;-89
2024/01/11 10:29:27;;;;;;;;;;;;;;;15.20;20.87;98818.47;5036167;28;19924;-90
2024/01/11 10:31:53;;;;;;;;;;;;;;;13.78;24.88;98816.41;5036959;28;20373;-89
2024/01/11 10:34:20;;;;;;;;;;;;;;;13.83;22.28;98821.69;5045858;28;19967;-89
2024/01/11 10:36:46;;;;;;;;;;;;;;;14.21;22.74;98815.72;5055647;28;19974;-89
2024/01/11 10:39:15;;;;;;;;;;;;;;;14.16;23.48;98827.03;5043110;28;19921;-89
2024/01/11 10:41:47;;;;;;;;;;;;;;;13.82;22.95;98819.28;5036431;28;20032;-88
2024/01/11 10:44:18;;;;;;;;;;;;;;;15.87;19.22;98822.88;5037044;28;20346;-89
2024/01/11 10:46:45;;;;;;;;;;;;;;;16.85;18.36;98804.75;5047392;28;19988;-89
2024/01/11 10:49:14;;;;;;;;;;;;;;;17.00;18.36;98795.53;5048379;28;20354;-89
2024/01/11 10:51:43;;;;;;;;;;;;;;;17.09;18.01;98787.78;5056675;28;19920;-89
2024/01/11 10:54:09;;;;;;;;;;;;;;;17.18;17.32;98791.09;5056585;28;20011;-89
2024/01/11 10:56:35;;;;;;;;;;;;;;;17.14;18.16;98792.19;5039742;28;19917;-89
2024/01/11 10:59:02;;;;;;;;;;;;;;;18.18;17.16;98783.09;5054353;28;19928;-88
2024/01/11 11:01:28;;;;;;;;;;;;;;;17.48;17.47;98782.06;5056192;28;19913;-89
2024/01/11 11:03:55;;;;;;;;;;;;;;;17.07;20.05;98784.56;5056328;28;19917;-88
2024/01/11 11:06:22;;;;;;;;;;;;;;;16.94;18.21;98783.13;5057709;28;20046;-88
2024/01/11 11:08:49;;;;;;;;;;;;;;;17.14;18.50;98756.94;5053166;28;19956;-88
2024/01/11 11:11:15;;;;;;;;;;;;;;;18.02;16.86;98768.59;5055253;28;19971;-88
2024/01/11 11:13:41;;;;;;;;;;;;;;;19.28;15.96;98760.88;5048968;28;20387;-87
2024/01/11 11:16:07;;;;;;;;;;;;;;;19.37;15.66;98754.97;5038440;28;20011;-88
2024/01/11 11:18:35;;;;;;;;;;;;;;;18.06;19.26;98755.56;5039936;28;19917;-88
2024/01/11 11:21:00;;;;;;;;;;;;;;;17.69;16.73;98760.22;5038369;28;19924;-88
2024/01/11 11:23:26;;;;;;;;;;;;;;;17.79;17.69;98754.00;5056454;28;19921;-88
2024/01/11 11:25:55;;;;;;;;;;;;;;;18.32;17.31;98746.38;5056255;28;19917;-88
2024/01/11 11:28:22;;;;;;;;;;;;;;;18.32;16.94;98747.13;5037367;28;19920;-89
2024/01/11 11:30:49;;;;;;;;;;;;;;;19.02;16.54;98740.78;5053258;28;19916;-88
2024/01/11 11:33:18;;;;;;;;;;;;;;;19.00;16.62;98743.09;5056440;28;19923;-88
2024/01/11 11:35:47;;;;;;;;;;;;;;;19.24;15.96;98729.41;5055759;28;19924;-88
2024/01/11 11:38:23;;;;;;;;;;;;;;;20.31;15.46;98723.31;5055967;28;19923;-87
2024/01/11 11:40:51;;;;;;;;;;;;;;;18.60;15.82;98713.31;5052310;28;19921;-88
2024/01/11 11:43:17;;;;;;;;;;;;;;;18.38;16.08;98712.28;5056316;28;20335;-87
2024/01/11 11:45:45;;;;;;;;;;;;;;;18.21;16.50;98712.06;5053827;28;19927;-87
2024/01/11 11:48:31;;;;;;;;;;;;;;;17.39;17.57;98715.69;5036441;28;19917;-88
2024/01/11 11:51:09;;;;;;;;;;;;;;;16.80;19.15;98701.69;5036726;28;19951;-88
2024/01/11 11:53:36;;;;;;;;;;;;;;;17.21;22.53;98698.78;5048657;28;19927;-87
2024/01/11 11:56:02;;;;;;;;;;;;;;;16.87;18.37;98682.38;5055118;28;20600;-87
2024/01/11 11:58:32;;;;;;;;;;;;;;;17.19;17.71;98692.81;5055570;28;19955;-87
2024/01/11 12:00:59;;;;;;;;;;;;;;;18.33;17.01;98693.16;5059662;28;19952;-87
2024/01/11 12:03:28;;;;;;;;;;;;;;;16.85;17.90;98684.72;5054663;28;19921;-88
2024/01/11 12:05:55;;;;;;;;;;;;;;;16.75;19.06;98677.84;5055448;28;20007;-87
2024/01/11 12:08:21;;;;;;;;;;;;;;;16.77;18.02;98683.00;5055532;28;19919;-88
2024/01/11 12:10:47;;;;;;;;;;;;;;;16.72;18.54;98673.03;5055146;28;19924;-87
2024/01/11 12:13:13;;;;;;;;;;;;;;;17.32;19.97;98675.97;5038708;28;20017;-88
2024/01/11 12:15:40;;;;;;;;;;;;;;;16.47;18.41;98671.75;5037368;28;19951;-88
2024/01/11 12:18:06;;;;;;;;;;;;;;;17.46;17.65;98676.94;5054862;28;20409;-87
2024/01/11 12:20:33;;;;;;;;;;;;;;;17.18;17.94;98670.97;5048354;28;19951;-87
2024/01/11 12:22:59;;;;;;;;;;;;;;;17.46;17.46;98670.59;5050878;28;19921;-88
2024/01/11 12:25:25;;;;;;;;;;;;;;;17.10;18.01;98660.97;5037114;28;20502;-88
2024/01/11 12:27:51;;;;;;;;;;;;;;;16.99;22.58;98654.44;5054922;28;19932;-88
2024/01/11 12:30:17;;;;;;;;;;;;;;;14.98;24.42;98655.97;5054983;28;19923;-87
2024/01/11 12:32:44;;;;;;;;;;;;;;;15.70;20.79;98654.44;5054084;28;19925;-87
2024/01/11 12:35:10;;;;;;;;;;;;;;;16.30;21.84;98650.88;5054403;28;20009;-89
2024/01/11 12:37:36;;;;;;;;;;;;;;;16.50;23.19;98637.75;5044580;28;19921;-87
2024/01/11 12:40:03;;;;;;;;;;;;;;;17.34;18.56;98626.44;5054442;28;19924;-87
2024/01/11 12:42:29;;;;;;;;;;;;;;;16.29;20.22;98638.16;5054757;28;19920;-87
2024/01/11 12:44:55;;;;;;;;;;;;;;;16.70;17.86;98625.47;5043813;28;19955;-87